Time;durP1;ratioP1;P1;durP2;ratioP2;P2;SDS_P1;SDS_P2;PMS_P1;PMS_P2;Temp;Humidity;BMP_temperature;BMP_pressure;BME280_temperature;BME280_humidity;BME280_pressure;Samples;Min_cycle;Max_cycle;Signal;HPM_P1;HPM_P2
2022/11/25 00:01:13;;;;;;;16.90;6.47;;;6.30;99.90;;;;;;5016017;28;20041;-80
2022/11/25 00:03:40;;;;;;;14.70;5.55;;;6.40;99.90;;;;;;5015504;28;20412;-68
2022/11/25 00:06:21;;;;;;;10.25;4.97;;;6.40;99.90;;;;;;5015519;28;20049;-79
2022/11/25 00:08:50;;;;;;;16.80;5.53;;;6.40;99.90;;;;;;5015921;28;20096;-76
2022/11/25 00:11:16;;;;;;;16.35;5.53;;;6.50;99.90;;;;;;5016044;28;20065;-79
2022/11/25 00:13:44;;;;;;;13.80;4.93;;;6.60;99.90;;;;;;5015926;28;20057;-68
2022/11/25 00:16:13;;;;;;;12.60;5.13;;;6.60;99.90;;;;;;5014008;28;20046;-68
2022/11/25 00:18:39;;;;;;;17.10;5.80;;;6.70;99.90;;;;;;5015114;28;20040;-79
2022/11/25 00:21:09;;;;;;;13.80;5.78;;;6.70;99.90;;;;;;5015289;28;20543;-69
2022/11/25 00:23:36;;;;;;;20.58;7.25;;;6.70;99.90;;;;;;5015366;28;20508;-78
2022/11/25 00:26:15;;;;;;;20.02;6.18;;;6.60;99.90;;;;;;5015095;28;20050;-79
2022/11/25 00:28:43;;;;;;;12.20;4.70;;;6.70;99.90;;;;;;5015164;28;20060;-68
2022/11/25 00:31:12;;;;;;;10.05;3.58;;;6.70;99.90;;;;;;5014973;28;20184;-68
2022/11/25 00:33:39;;;;;;;13.60;4.63;;;6.90;99.90;;;;;;5015437;28;20030;-69
2022/11/25 00:36:10;;;;;;;11.50;3.58;;;7.00;99.90;;;;;;5015530;28;20042;-69
2022/11/25 00:38:36;;;;;;;11.38;3.60;;;7.30;99.90;;;;;;5015432;28;20048;-79
2022/11/25 00:46:29;;;;;;;10.73;3.63;;;7.20;99.90;;;;;;5015286;28;20032;-68
2022/11/25 00:48:55;;;;;;;14.25;4.78;;;7.20;99.90;;;;;;5015362;28;20046;-79
2022/11/25 00:51:21;;;;;;;12.52;4.32;;;7.00;99.90;;;;;;5015098;28;20092;-68
2022/11/25 00:53:47;;;;;;;12.25;3.83;;;7.10;99.90;;;;;;5015179;28;20128;-68
2022/11/25 00:56:12;;;;;;;9.60;3.38;;;7.20;99.90;;;;;;5015168;28;20536;-69
2022/11/25 00:58:39;;;;;;;7.43;2.65;;;7.50;99.90;;;;;;5014928;28;20072;-71
2022/11/25 01:01:05;;;;;;;14.45;2.83;;;7.60;99.90;;;;;;5011562;28;20130;-68
2022/11/25 01:03:31;;;;;;;11.50;2.50;;;7.70;99.90;;;;;;5014985;28;20125;-68
2022/11/25 01:06:04;;;;;;;11.07;4.18;;;7.80;99.90;;;;;;5015054;28;20096;-79
2022/11/25 01:08:30;;;;;;;14.30;4.57;;;7.20;99.90;;;;;;5014985;28;20065;-69
2022/11/25 01:11:05;;;;;;;12.52;4.80;;;6.90;99.90;;;;;;5014730;28;20056;-68
2022/11/25 01:13:31;;;;;;;10.98;3.55;;;6.80;99.90;;;;;;5014608;28;20041;-80
2022/11/25 01:16:00;;;;;;;17.75;5.88;;;6.80;99.90;;;;;;5014888;28;20045;-79
2022/11/25 01:18:27;;;;;;;11.57;4.22;;;6.90;99.90;;;;;;5014876;28;20069;-79
2022/11/25 01:20:53;;;;;;;12.18;3.67;;;7.00;99.90;;;;;;5014794;28;20041;-68
2022/11/25 01:23:19;;;;;;;12.13;4.80;;;7.10;99.90;;;;;;5014800;28;20042;-70
2022/11/25 01:25:44;;;;;;;12.88;5.05;;;7.20;99.90;;;;;;5014493;28;20052;-75
2022/11/25 01:28:12;;;;;;;10.27;4.35;;;7.30;99.90;;;;;;5014460;28;20125;-68
2022/11/25 01:30:39;;;;;;;10.68;4.28;;;7.30;99.90;;;;;;5014648;28;20049;-79
2022/11/25 01:33:05;;;;;;;13.93;3.45;;;7.50;99.90;;;;;;5014600;28;20046;-68
2022/11/25 01:35:30;;;;;;;10.93;2.88;;;7.70;99.90;;;;;;5014480;28;20046;-79
2022/11/25 01:37:56;;;;;;;4.95;2.15;;;7.90;99.90;;;;;;5014590;28;20045;-78
2022/11/25 01:40:22;;;;;;;9.70;2.80;;;8.10;99.90;;;;;;5013787;28;20041;-68
2022/11/25 01:42:48;;;;;;;9.25;2.47;;;8.10;99.90;;;;;;5013995;28;20045;-68
2022/11/25 01:45:22;;;;;;;7.70;2.03;;;8.20;99.90;;;;;;5013969;28;20098;-69
2022/11/25 01:47:59;;;;;;;11.90;5.70;;;8.30;99.90;;;;;;5014355;28;20480;-68
2022/11/25 01:50:27;;;;;;;11.50;5.30;;;8.20;99.90;;;;;;5014105;28;20045;-79
2022/11/25 01:52:54;;;;;;;8.32;3.42;;;8.20;99.90;;;;;;5014094;28;20041;-68
2022/11/25 01:55:31;;;;;;;8.30;2.30;;;8.20;99.90;;;;;;5014338;28;20055;-68
2022/11/25 01:58:04;;;;;;;6.20;2.10;;;8.20;99.90;;;;;;5014299;28;20034;-79
2022/11/25 02:00:31;;;;;;;9.88;4.50;;;8.10;99.90;;;;;;5014470;28;20034;-69
2022/11/25 02:02:57;;;;;;;4.05;1.75;;;8.20;99.90;;;;;;5014418;28;20069;-79
2022/11/25 02:05:45;;;;;;;8.32;2.38;;;8.10;99.90;;;;;;5013857;28;20038;-69
2022/11/25 02:08:11;;;;;;;4.80;2.00;;;8.00;99.90;;;;;;5012804;28;20520;-79
2022/11/25 02:10:38;;;;;;;8.77;2.75;;;8.10;99.90;;;;;;5012889;28;20046;-79
2022/11/25 02:13:04;;;;;;;6.07;2.67;;;8.00;99.90;;;;;;5014323;28;20440;-79
2022/11/25 02:15:33;;;;;;;7.85;2.50;;;8.10;99.90;;;;;;5014075;28;20092;-69
2022/11/25 02:17:58;;;;;;;7.90;2.67;;;8.10;99.90;;;;;;5013802;28;20429;-79
2022/11/25 02:20:24;;;;;;;8.43;2.25;;;7.90;99.90;;;;;;5013986;28;20107;-70
2022/11/25 02:23:08;;;;;;;10.30;4.07;;;7.90;99.90;;;;;;5014009;28;20523;-79
2022/11/25 02:25:39;;;;;;;9.73;3.42;;;7.90;99.90;;;;;;5013911;28;20489;-68
2022/11/25 02:28:06;;;;;;;;;;;8.10;99.90;;;;;;5014255;28;20030;-68
2022/11/25 02:30:33;;;;;;;8.70;2.22;;;8.10;99.90;;;;;;5013840;28;20005;-69
2022/11/25 02:33:00;;;;;;;8.00;2.25;;;8.20;99.90;;;;;;5014045;28;20134;-79
2022/11/25 02:35:30;;;;;;;6.22;1.88;;;8.20;99.90;;;;;;5014017;28;20531;-76
2022/11/25 02:38:24;;;;;;;11.40;3.00;;;8.20;99.90;;;;;;5012707;28;20042;-79
2022/11/25 02:41:04;;;;;;;4.13;1.70;;;8.20;99.90;;;;;;5013899;28;20496;-68
2022/11/25 02:43:31;;;;;;;6.73;2.13;;;8.20;99.90;;;;;;5014018;28;20468;-79
2022/11/25 02:46:04;;;;;;;12.05;5.18;;;8.20;99.90;;;;;;5013920;28;20038;-72
2022/11/25 02:48:32;;;;;;;7.55;2.38;;;8.20;99.90;;;;;;5013810;28;20088;-79
2022/11/25 02:50:58;;;;;;;10.38;2.97;;;8.20;99.90;;;;;;5013652;28;20050;-79
2022/11/25 02:53:24;;;;;;;6.22;2.35;;;8.10;99.90;;;;;;5013456;28;20565;-79
2022/11/25 02:55:50;;;;;;;7.95;2.60;;;8.00;99.90;;;;;;5016131;28;20037;-79
2022/11/25 02:58:16;;;;;;;8.65;3.03;;;8.10;99.90;;;;;;5016078;28;20034;-78
2022/11/25 03:00:42;;;;;;;7.15;2.53;;;8.10;99.90;;;;;;5017269;28;20041;-70
2022/11/25 03:03:08;;;;;;;7.05;2.92;;;8.10;99.90;;;;;;5017314;28;20068;-69
2022/11/25 03:05:34;;;;;;;8.77;3.53;;;8.00;99.90;;;;;;5006036;28;20536;-78
2022/11/25 03:07:59;;;;;;;10.20;3.28;;;7.80;99.90;;;;;;5010087;28;20041;-69
2022/11/25 03:10:25;;;;;;;14.23;7.10;;;7.70;99.90;;;;;;5016597;28;20042;-79
2022/11/25 03:12:51;;;;;;;8.02;4.35;;;7.70;99.90;;;;;;5017057;28;20052;-68
2022/11/25 03:15:17;;;;;;;10.57;3.35;;;7.70;99.90;;;;;;5017038;28;20128;-72
2022/11/25 03:17:43;;;;;;;12.63;4.75;;;7.70;99.90;;;;;;5016808;28;20038;-70
2022/11/25 03:20:11;;;;;;;7.65;2.88;;;7.50;99.90;;;;;;5016739;28;20034;-74
2022/11/25 03:22:38;;;;;;;7.50;3.00;;;7.30;99.90;;;;;;5016653;28;20061;-81
2022/11/25 03:25:05;;;;;;;6.45;2.30;;;7.30;99.90;;;;;;5016714;28;20104;-68
2022/11/25 03:27:32;;;;;;;6.22;2.03;;;7.50;99.90;;;;;;5016676;28;20092;-68
2022/11/25 03:29:57;;;;;;;4.95;2.25;;;7.60;99.90;;;;;;5016558;28;20044;-69
2022/11/25 03:32:23;;;;;;;6.55;2.05;;;7.70;99.90;;;;;;5016727;28;20046;-80
2022/11/25 03:34:49;;;;;;;6.75;1.75;;;7.60;99.90;;;;;;5016795;28;20029;-68
2022/11/25 03:37:15;;;;;;;4.68;2.20;;;7.60;99.90;;;;;;5016482;28;20069;-68
2022/11/25 03:39:40;;;;;;;3.90;1.83;;;7.70;99.90;;;;;;5016552;28;20370;-80
2022/11/25 03:42:06;;;;;;;4.57;1.92;;;7.80;99.90;;;;;;5016397;28;20038;-68
2022/11/25 03:44:32;;;;;;;6.05;2.13;;;7.90;99.90;;;;;;5016399;28;20046;-68
2022/11/25 03:46:58;;;;;;;5.35;1.63;;;7.90;99.90;;;;;;5016127;28;20029;-68
2022/11/25 03:49:23;;;;;;;4.30;1.88;;;7.90;99.90;;;;;;5013235;28;20041;-69
2022/11/25 03:51:49;;;;;;;4.53;1.92;;;7.90;99.90;;;;;;5014276;28;20721;-68
2022/11/25 03:54:15;;;;;;;5.85;2.17;;;7.90;99.90;;;;;;5016085;28;20405;-70
2022/11/25 03:56:41;;;;;;;5.15;1.90;;;7.90;99.90;;;;;;5014662;28;20042;-68
2022/11/25 03:59:06;;;;;;;4.80;1.40;;;8.00;99.90;;;;;;5014244;28;20033;-70
2022/11/25 04:01:32;;;;;;;3.63;1.70;;;8.00;99.90;;;;;;5016149;28;20045;-68
2022/11/25 04:03:58;;;;;;;4.97;1.58;;;8.00;99.90;;;;;;5016073;28;20104;-69
2022/11/25 04:06:24;;;;;;;4.15;1.48;;;8.00;99.90;;;;;;5014848;28;20136;-80
2022/11/25 04:08:50;;;;;;;5.43;1.40;;;8.00;99.90;;;;;;5015944;28;20048;-69
2022/11/25 04:11:15;;;;;;;10.05;1.90;;;7.90;99.90;;;;;;5015790;28;20110;-78
2022/11/25 04:13:41;;;;;;;4.88;1.63;;;7.90;99.90;;;;;;5014749;28;20440;-73
2022/11/25 04:16:18;;;;;;;3.92;1.73;;;8.10;99.90;;;;;;5015697;28;20068;-79
2022/11/25 04:18:44;;;;;;;7.00;1.90;;;8.10;99.90;;;;;;5015479;28;20125;-69
2022/11/25 04:21:10;;;;;;;6.15;2.60;;;8.10;99.90;;;;;;5015955;28;20124;-69
2022/11/25 04:23:35;;;;;;;4.85;1.75;;;8.10;99.90;;;;;;5015771;28;20404;-69
2022/11/25 04:26:01;;;;;;;6.10;2.03;;;8.10;99.90;;;;;;5015714;28;20157;-68
2022/11/25 04:28:27;;;;;;;7.75;2.05;;;8.10;99.90;;;;;;5015760;28;20034;-69
2022/11/25 04:30:53;;;;;;;6.75;1.50;;;8.00;99.90;;;;;;5015620;28;20045;-68
2022/11/25 04:33:19;;;;;;;8.32;1.92;;;8.10;99.90;;;;;;5014291;28;20561;-80
2022/11/25 04:35:44;;;;;;;4.30;1.40;;;8.20;99.90;;;;;;5014939;28;20073;-68
2022/11/25 04:38:10;;;;;;;2.88;1.10;;;8.20;99.90;;;;;;5015258;28;20044;-69
2022/11/25 04:40:36;;;;;;;5.13;1.48;;;8.20;99.90;;;;;;5014126;28;20046;-81
2022/11/25 04:43:01;;;;;;;6.25;1.70;;;8.30;99.90;;;;;;5015467;28;20034;-68
2022/11/25 04:45:27;;;;;;;4.07;1.33;;;8.30;99.90;;;;;;5015364;28;20045;-74
2022/11/25 04:47:53;;;;;;;5.63;1.50;;;8.10;99.90;;;;;;5015152;28;20400;-69
2022/11/25 04:50:21;;;;;;;4.30;1.45;;;8.00;99.90;;;;;;5015174;28;20041;-80
2022/11/25 04:52:47;;;;;;;3.30;1.42;;;8.20;99.90;;;;;;5015137;28;20038;-74
2022/11/25 04:55:16;;;;;;;4.80;1.40;;;8.20;99.90;;;;;;5015205;28;20045;-69
2022/11/25 04:57:41;;;;;;;4.82;2.17;;;8.30;99.90;;;;;;5015202;28;20501;-70
2022/11/25 05:00:08;;;;;;;3.28;1.45;;;8.30;99.90;;;;;;5015094;28;20096;-68
2022/11/25 05:02:34;;;;;;;4.82;1.75;;;8.30;99.90;;;;;;5014981;28;20377;-69
2022/11/25 05:05:00;;;;;;;7.10;1.88;;;8.30;99.90;;;;;;5015158;28;20111;-80
2022/11/25 05:07:27;;;;;;;3.13;1.50;;;8.20;99.90;;;;;;5015078;28;20496;-80
2022/11/25 05:09:54;;;;;;;5.05;1.70;;;8.20;99.90;;;;;;5015107;28;20378;-69
2022/11/25 05:12:22;;;;;;;4.88;1.30;;;8.10;99.90;;;;;;5014935;28;20045;-69
2022/11/25 05:14:48;;;;;;;6.85;1.70;;;8.20;99.90;;;;;;5014689;28;20038;-69
2022/11/25 05:17:20;;;;;;;4.22;1.30;;;8.20;99.90;;;;;;5014544;28;20037;-73
2022/11/25 05:19:46;;;;;;;4.80;1.83;;;8.20;99.90;;;;;;5014680;28;20034;-71
2022/11/25 05:22:13;;;;;;;3.78;1.63;;;8.20;99.90;;;;;;5014813;28;20103;-70
2022/11/25 05:24:39;;;;;;;4.82;1.10;;;8.20;99.90;;;;;;5014804;28;20042;-74
2022/11/25 05:27:05;;;;;;;4.90;1.25;;;8.00;99.90;;;;;;5014717;28;20120;-68
2022/11/25 05:29:31;;;;;;;6.70;1.30;;;8.10;99.90;;;;;;5014613;28;20050;-69
2022/11/25 05:31:57;;;;;;;6.35;1.48;;;8.20;99.90;;;;;;5014664;28;20059;-80
2022/11/25 05:34:22;;;;;;;5.78;1.40;;;8.20;99.90;;;;;;5014652;28;20042;-68
2022/11/25 05:36:48;;;;;;;8.80;1.92;;;8.20;99.90;;;;;;5013478;28;20045;-81
2022/11/25 05:39:14;;;;;;;4.22;1.33;;;8.10;99.90;;;;;;5014467;28;20030;-69
2022/11/25 05:41:40;;;;;;;7.20;1.58;;;8.10;99.90;;;;;;5014447;28;20042;-80
2022/11/25 05:44:05;;;;;;;5.47;1.20;;;8.10;99.90;;;;;;5014240;28;20417;-73
2022/11/25 05:46:31;;;;;;;4.68;1.85;;;8.20;99.90;;;;;;5013053;28;20536;-69
2022/11/25 05:48:57;;;;;;;5.45;2.53;;;8.20;99.90;;;;;;5014327;28;20041;-81
2022/11/25 05:51:24;;;;;;;3.65;1.70;;;8.30;99.90;;;;;;5014299;28;20060;-68
2022/11/25 05:53:50;;;;;;;6.82;2.05;;;8.20;99.90;;;;;;5014274;28;20029;-68
2022/11/25 05:56:16;;;;;;;3.72;1.23;;;8.00;99.90;;;;;;5005353;28;20057;-72
2022/11/25 05:58:42;;;;;;;3.28;1.15;;;7.70;99.90;;;;;;4994594;28;20034;-70
2022/11/25 06:01:10;;;;;;;4.00;1.30;;;7.70;99.90;;;;;;4994531;28;20046;-81
2022/11/25 06:03:36;;;;;;;3.58;1.23;;;7.80;99.90;;;;;;4994538;28;20379;-69
2022/11/25 06:06:02;;;;;;;3.83;1.00;;;7.80;99.90;;;;;;4994711;28;20061;-70
2022/11/25 06:08:28;;;;;;;6.10;1.42;;;7.60;99.90;;;;;;4994426;28;20034;-69
2022/11/25 06:10:54;;;;;;;7.38;1.63;;;7.60;99.90;;;;;;4994541;28;20050;-80
2022/11/25 06:13:20;;;;;;;2.88;1.17;;;7.60;99.90;;;;;;4994316;28;20042;-68
2022/11/25 06:15:46;;;;;;;2.95;1.20;;;7.80;99.90;;;;;;4994404;28;20034;-81
2022/11/25 06:18:14;;;;;;;7.18;1.70;;;8.00;99.90;;;;;;4994354;28;20065;-70
2022/11/25 06:20:40;;;;;;;5.57;1.27;;;8.10;99.90;;;;;;4994073;28;20046;-80
2022/11/25 06:23:07;;;;;;;7.47;1.40;;;8.20;99.90;;;;;;4993998;28;20062;-80
2022/11/25 06:25:33;;;;;;;4.40;1.60;;;8.20;99.90;;;;;;5008982;28;20040;-76
2022/11/25 06:27:59;;;;;;;11.38;5.75;;;8.20;99.90;;;;;;5012343;28;20044;-69
2022/11/25 06:30:25;;;;;;;6.90;1.83;;;8.10;99.90;;;;;;5013406;28;20042;-70
2022/11/25 06:32:54;;;;;;;1.90;1.27;;;7.90;99.90;;;;;;5015204;28;20052;-69
2022/11/25 06:35:20;;;;;;;4.40;1.25;;;7.70;99.90;;;;;;5015708;28;20038;-68
2022/11/25 06:37:45;;;;;;;2.97;1.10;;;7.60;99.90;;;;;;5014308;28;20076;-76
2022/11/25 06:40:11;;;;;;;3.90;1.00;;;7.80;99.90;;;;;;5015562;28;20036;-69
2022/11/25 06:42:38;;;;;;;5.88;1.10;;;8.10;99.90;;;;;;5016212;28;20041;-74
2022/11/25 06:45:05;;;;;;;4.38;0.70;;;8.20;99.90;;;;;;5017765;28;20038;-70
2022/11/25 06:47:31;;;;;;;3.15;0.73;;;8.40;99.90;;;;;;5017426;28;20038;-79
2022/11/25 06:49:57;;;;;;;4.03;1.13;;;8.50;99.90;;;;;;5017275;28;20527;-69
2022/11/25 06:52:24;;;;;;;2.55;0.90;;;8.40;99.90;;;;;;5016922;28;20041;-70
2022/11/25 06:54:50;;;;;;;4.72;0.90;;;8.50;99.90;;;;;;5017395;28;20038;-69
2022/11/25 06:57:18;;;;;;;4.00;0.80;;;8.40;99.90;;;;;;5017299;28;20037;-70
2022/11/25 06:59:44;;;;;;;2.83;0.70;;;8.40;99.90;;;;;;5017339;28;20401;-70
2022/11/25 07:02:13;;;;;;;3.42;0.98;;;8.30;99.90;;;;;;5017228;28;20022;-69
2022/11/25 07:04:39;;;;;;;1.40;0.55;;;8.20;99.90;;;;;;5017039;28;20045;-68
2022/11/25 07:07:05;;;;;;;2.10;0.80;;;8.20;99.90;;;;;;5017017;28;20037;-71
2022/11/25 07:09:31;;;;;;;2.03;0.95;;;8.20;99.90;;;;;;5012470;28;20513;-75
2022/11/25 07:11:57;;;;;;;9.18;2.83;;;8.10;99.90;;;;;;5013950;28;20104;-79
2022/11/25 07:14:23;;;;;;;7.35;2.60;;;8.00;99.90;;;;;;5016706;28;20112;-69
2022/11/25 07:16:49;;;;;;;13.30;4.40;;;7.90;99.90;;;;;;5016933;28;20180;-70
2022/11/25 07:19:17;;;;;;;5.53;1.55;;;7.80;99.90;;;;;;5015940;28;20484;-71
2022/11/25 07:21:44;;;;;;;6.43;1.20;;;7.80;99.90;;;;;;5015708;28;20038;-69
2022/11/25 07:24:12;;;;;;;5.88;1.13;;;7.80;99.90;;;;;;5016765;28;20065;-73
2022/11/25 07:26:41;;;;;;;2.65;0.90;;;7.90;99.90;;;;;;5015774;28;20508;-79
2022/11/25 07:29:13;;;;;;;2.13;1.00;;;7.90;99.90;;;;;;5015674;28;20118;-75
2022/11/25 07:31:41;;;;;;;4.88;1.08;;;8.00;99.90;;;;;;5016704;28;20045;-69
2022/11/25 07:34:12;;;;;;;4.82;1.20;;;8.00;99.90;;;;;;5016091;28;20042;-73
2022/11/25 07:36:39;;;;;;;3.28;1.25;;;8.20;99.90;;;;;;5015674;28;20046;-75
2022/11/25 07:39:11;;;;;;;1.77;0.85;;;8.30;99.90;;;;;;5016180;28;20050;-70
2022/11/25 07:41:37;;;;;;;6.15;1.65;;;8.20;99.90;;;;;;5015274;28;20508;-79
2022/11/25 07:44:04;;;;;;;9.57;4.35;;;8.30;99.90;;;;;;5016527;28;20079;-69
2022/11/25 07:46:33;;;;;;;13.75;4.50;;;8.60;99.90;;;;;;5016436;28;20037;-69
2022/11/25 07:49:02;;;;;;;8.50;3.08;;;8.80;99.90;;;;;;5016391;28;20043;-70
2022/11/25 07:51:34;;;;;;;8.20;3.08;;;9.00;99.90;;;;;;5016103;28;20209;-69
2022/11/25 07:54:02;;;;;;;10.55;2.88;;;9.30;99.90;;;;;;5016223;28;20437;-80
2022/11/25 07:56:29;;;;;;;17.15;4.90;;;9.40;99.90;;;;;;5016249;28;20042;-79
2022/11/25 07:58:56;;;;;;;12.95;3.95;;;9.20;99.90;;;;;;5016305;28;20041;-79
2022/11/25 08:01:22;;;;;;;8.48;2.63;;;9.30;99.90;;;;;;5016147;28;20045;-69
2022/11/25 08:03:49;;;;;;;14.88;4.57;;;9.40;99.90;;;;;;5013701;28;20488;-69
2022/11/25 08:06:18;;;;;;;8.90;2.33;;;9.40;99.90;;;;;;4996611;28;20046;-69
2022/11/25 08:08:44;;;;;;;7.95;2.00;;;9.20;99.90;;;;;;4996261;28;20038;-78
2022/11/25 08:11:19;;;;;;;7.13;1.60;;;9.30;99.90;;;;;;4996226;28;20430;-80
2022/11/25 08:13:45;;;;;;;4.80;1.90;;;9.10;99.90;;;;;;4996256;28;20049;-69
2022/11/25 08:16:13;;;;;;;5.30;2.03;;;9.00;99.90;;;;;;4996162;28;20454;-79
2022/11/25 08:18:39;;;;;;;5.28;1.65;;;9.30;99.90;;;;;;4996274;28;20113;-80
2022/11/25 08:21:08;;;;;;;4.95;1.70;;;9.40;99.90;;;;;;4996277;28;20049;-80
2022/11/25 08:23:35;;;;;;;9.90;2.05;;;9.60;99.90;;;;;;4996197;28;20049;-70
2022/11/25 08:26:06;;;;;;;4.13;1.83;;;9.70;99.90;;;;;;4996109;28;20401;-80
2022/11/25 08:28:34;;;;;;;4.93;2.13;;;9.50;99.90;;;;;;4996165;28;20030;-69
2022/11/25 08:31:09;;;;;;;4.63;1.40;;;9.30;99.90;;;;;;4995814;28;20540;-70
2022/11/25 08:33:35;;;;;;;4.88;1.63;;;9.40;99.90;;;;;;4994508;28;20396;-69
2022/11/25 08:36:01;;;;;;;4.75;1.20;;;9.40;99.90;;;;;;4995880;28;20173;-80
2022/11/25 08:38:28;;;;;;;9.63;1.95;;;9.50;99.90;;;;;;4995868;28;20493;-80
2022/11/25 08:40:54;;;;;;;5.63;2.00;;;9.60;99.90;;;;;;4995852;28;20046;-69
2022/11/25 08:43:20;;;;;;;2.45;1.35;;;9.70;99.90;;;;;;4995602;28;20125;-69
2022/11/25 08:45:49;;;;;;;3.75;1.50;;;9.70;99.90;;;;;;4995717;28;20050;-77
2022/11/25 08:48:17;;;;;;;6.57;2.50;;;9.80;99.90;;;;;;4995762;28;20097;-77
2022/11/25 08:50:48;;;;;;;9.23;3.30;;;9.90;99.90;;;;;;4995475;28;20042;-72
2022/11/25 08:53:14;;;;;;;5.80;2.30;;;9.80;99.90;;;;;;4995059;28;20161;-69
2022/11/25 08:55:40;;;;;;;6.88;2.40;;;9.90;99.90;;;;;;4995443;28;20500;-80
2022/11/25 08:58:11;;;;;;;4.03;1.40;;;9.90;99.90;;;;;;4995401;28;20046;-72
2022/11/25 09:00:41;;;;;;;4.30;1.42;;;10.30;99.90;;;;;;4995395;28;20057;-74
2022/11/25 09:03:08;;;;;;;3.77;0.90;;;10.60;99.90;;;;;;4995811;28;20046;-70
2022/11/25 09:05:37;;;;;;;4.50;1.40;;;10.80;99.90;;;;;;4995173;28;20169;-80
2022/11/25 09:08:04;;;;;;;5.50;1.38;;;11.00;99.90;;;;;;4995244;28;20034;-70
2022/11/25 09:10:32;;;;;;;3.53;1.35;;;11.10;99.90;;;;;;4994990;28;20046;-81
2022/11/25 09:12:58;;;;;;;7.18;2.83;;;11.70;99.90;;;;;;4995487;28;20062;-69
2022/11/25 09:15:25;;;;;;;5.75;2.17;;;11.80;99.90;;;;;;5014392;28;20040;-78
2022/11/25 09:18:02;;;;;;;3.95;1.70;;;11.70;99.90;;;;;;5014657;28;20076;-83
2022/11/25 09:20:29;;;;;;;3.38;1.75;;;11.90;99.90;;;;;;5014629;28;20064;-75
2022/11/25 09:22:55;;;;;;;3.97;1.77;;;;;;;;;;5014788;28;20477;-75
2022/11/25 09:25:21;;;;;;;6.78;1.77;;;12.10;99.90;;;;;;5014647;28;20045;-80
2022/11/25 09:27:47;;;;;;;8.60;2.97;;;12.20;99.90;;;;;;5014678;28;20037;-69
2022/11/25 09:30:13;;;;;;;3.60;1.30;;;12.20;99.90;;;;;;5014584;28;20046;-69
2022/11/25 09:32:39;;;;;;;4.95;1.55;;;12.40;99.90;;;;;;5014520;28;20056;-71
2022/11/25 09:35:05;;;;;;;1.60;0.60;;;12.70;99.90;;;;;;5014598;28;20038;-73
2022/11/25 09:37:31;;;;;;;3.20;1.08;;;12.90;99.90;;;;;;5014559;28;20041;-81
2022/11/25 09:39:57;;;;;;;2.67;0.70;;;12.80;99.90;;;;;;5014554;28;20435;-82
2022/11/25 09:48:11;;;;;;;3.65;1.00;;;12.70;99.90;;;;;;5014256;28;20041;-82
2022/11/25 09:51:00;;;;;;;3.58;1.10;;;12.90;99.90;;;;;;5014233;28;20413;-80
2022/11/25 09:53:25;;;;;;;6.43;0.80;;;12.70;99.90;;;;;;5014209;28;20057;-77
2022/11/25 09:55:57;;;;;;;4.20;1.50;;;12.70;99.90;;;;;;5014333;28;20042;-70
2022/11/25 09:58:31;;;;;;;3.47;0.88;;;13.00;99.90;;;;;;5012924;28;20026;-79
2022/11/25 10:00:59;;;;;;;3.15;1.10;;;13.00;99.90;;;;;;5014277;28;20053;-77
2022/11/25 10:03:40;;;;;;;6.07;2.10;;;13.00;99.90;;;;;;5014175;28;20033;-70
2022/11/25 10:06:28;;;;;;;5.05;2.60;;;12.90;99.90;;;;;;5017176;28;20045;-77
2022/11/25 10:09:10;;;;;;;3.75;1.60;;;12.80;99.90;;;;;;5018203;28;20048;-70
2022/11/25 10:11:46;;;;;;;9.48;2.47;;;12.90;99.90;;;;;;5018075;28;20405;-79
2022/11/25 10:14:11;;;;;;;4.35;1.10;;;12.60;99.90;;;;;;5018212;28;20041;-70
2022/11/25 10:16:37;;;;;;;3.70;1.40;;;12.50;99.90;;;;;;5018073;28;20042;-80
2022/11/25 10:19:42;;;;;;;4.57;1.65;;;12.40;99.90;;;;;;5017417;28;20500;-71
2022/11/25 10:22:20;;;;;;;2.88;1.10;;;12.30;99.90;;;;;;5002126;28;20049;-74
2022/11/25 10:24:46;;;;;;;4.95;1.42;;;12.20;99.90;;;;;;5017727;28;20034;-70
2022/11/25 10:27:21;;;;;;;7.85;2.15;;;12.10;99.90;;;;;;5017910;28;20045;-71
2022/11/25 10:29:58;;;;;;;4.78;2.47;;;12.10;99.90;;;;;;5017729;28;20072;-82
2022/11/25 10:32:26;;;;;;;3.70;1.00;;;12.00;99.90;;;;;;5017935;28;20053;-77
2022/11/25 10:34:59;;;;;;;4.93;1.33;;;11.90;99.90;;;;;;5017933;28;20370;-74
2022/11/25 10:37:29;;;;;;;3.85;1.88;;;11.90;99.90;;;;;;5017621;28;20133;-80
2022/11/25 10:39:55;;;;;;;4.70;2.08;;;11.70;99.90;;;;;;5017485;28;20571;-82
2022/11/25 10:42:25;;;;;;;2.85;1.00;;;11.70;99.90;;;;;;5017471;28;20069;-82
2022/11/25 10:44:53;;;;;;;2.72;1.17;;;11.60;99.90;;;;;;5017367;28;20038;-82
2022/11/25 10:47:51;;;;;;;5.85;3.15;;;11.50;99.90;;;;;;5017763;28;20033;-81
2022/11/25 10:50:20;;;;;;;6.45;2.17;;;11.40;99.90;;;;;;5017355;28;20034;-69
2022/11/25 10:53:24;;;;;;;5.88;2.17;;;11.30;99.90;;;;;;5017474;28;20401;-82
2022/11/25 10:56:22;;;;;;;4.60;1.17;;;11.20;99.90;;;;;;5017185;28;20076;-82
2022/11/25 10:58:48;;;;;;;5.82;1.90;;;11.20;99.90;;;;;;4994701;28;20123;-72
2022/11/25 11:01:22;;;;;;;2.80;1.00;;;11.10;99.90;;;;;;5017547;28;20512;-70
2022/11/25 11:04:01;;;;;;;3.63;0.80;;;11.20;99.90;;;;;;5017313;28;20040;-73
2022/11/25 11:06:34;;;;;;;1.92;0.70;;;11.30;99.90;;;;;;5017309;28;20072;-73
2022/11/25 11:09:00;;;;;;;3.20;1.15;;;11.40;99.90;;;;;;5017146;28;20457;-68
2022/11/25 11:11:26;;;;;;;2.40;0.85;;;11.40;99.90;;;;;;5017018;28;20523;-77
2022/11/25 11:14:19;;;;;;;5.45;1.60;;;11.40;99.90;;;;;;5008762;28;20095;-69
2022/11/25 11:16:53;;;;;;;8.65;1.65;;;11.40;99.90;;;;;;5012493;28;20041;-69
2022/11/25 11:19:29;;;;;;;5.38;0.90;;;11.30;99.90;;;;;;5016407;28;20533;-79
2022/11/25 11:22:12;;;;;;;3.15;0.77;;;11.10;99.90;;;;;;5016947;28;20049;-78
2022/11/25 11:24:40;;;;;;;3.30;1.20;;;10.90;99.90;;;;;;5016834;28;20042;-69
2022/11/25 11:27:18;;;;;;;5.30;2.03;;;11.00;99.90;;;;;;5016940;28;20049;-70
2022/11/25 11:29:44;;;;;;;3.05;1.27;;;11.10;99.90;;;;;;5015485;28;20037;-69
2022/11/25 11:32:24;;;;;;;6.55;1.42;;;11.20;99.90;;;;;;5016625;28;20054;-69
2022/11/25 11:35:20;;;;;;;3.15;0.93;;;11.10;99.90;;;;;;5016711;28;20030;-68
2022/11/25 11:37:53;;;;;;;5.53;1.40;;;11.10;99.90;;;;;;5016518;28;20037;-72
2022/11/25 11:40:45;;;;;;;5.70;1.58;;;10.90;99.90;;;;;;5016360;28;20125;-68
2022/11/25 11:43:29;;;;;;;7.20;2.55;;;10.90;99.90;;;;;;5016318;28;20037;-69
2022/11/25 11:46:15;;;;;;;6.10;1.40;;;11.10;99.90;;;;;;5016329;28;20481;-82
2022/11/25 11:48:51;;;;;;;7.40;1.25;;;11.20;99.90;;;;;;5015576;28;20073;-68
2022/11/25 11:51:43;;;;;;;7.38;1.20;;;11.30;99.90;;;;;;5015833;28;20084;-78
2022/11/25 11:54:14;;;;;;;7.65;2.17;;;11.30;99.90;;;;;;5016325;28;20045;-82
2022/11/25 11:56:55;;;;;;;6.25;2.05;;;11.40;99.90;;;;;;5016288;28;20134;-80
2022/11/25 11:59:23;;;;;;;5.38;1.70;;;11.30;99.90;;;;;;5016075;28;20041;-80
2022/11/25 12:02:20;;;;;;;12.00;3.55;;;11.10;99.90;;;;;;5016195;28;20038;-77
2022/11/25 12:05:10;;;;;;;11.10;3.53;;;11.10;99.90;;;;;;5016135;28;20052;-77
2022/11/25 12:07:50;;;;;;;12.70;4.68;;;11.10;99.90;;;;;;5015696;28;20384;-78
2022/11/25 12:10:19;;;;;;;;;;;11.10;99.90;;;;;;5016326;28;20042;-68
2022/11/25 12:12:59;;;;;;;5.13;1.42;;;11.20;99.90;;;;;;5014979;28;19913;-68
2022/11/25 12:15:57;;;;;;;4.65;2.20;;;11.10;99.90;;;;;;5013882;28;20045;-68
2022/11/25 12:18:51;;;;;;;6.47;1.58;;;11.20;99.90;;;;;;4970160;28;20042;-67
2022/11/25 12:21:58;;;;;;;6.03;1.50;;;11.10;99.90;;;;;;5014825;28;20462;-80
2022/11/25 12:24:39;;;;;;;7.22;1.73;;;11.20;99.90;;;;;;4975618;28;20509;-68
2022/11/25 12:27:22;;;;;;;6.10;2.08;;;11.20;99.90;;;;;;5014492;28;20401;-79
2022/11/25 12:29:49;;;;;;;7.75;2.33;;;11.00;99.90;;;;;;5013864;28;20077;-68
2022/11/25 12:32:53;;;;;;;11.88;2.40;;;10.90;99.90;;;;;;5004071;28;20057;-69
2022/11/25 12:35:27;;;;;;;4.28;1.42;;;10.90;99.90;;;;;;4994072;28;20034;-73
2022/11/25 12:38:31;;;;;;;7.22;1.73;;;10.90;99.90;;;;;;4993079;28;20042;-69
2022/11/25 12:41:09;;;;;;;5.75;1.65;;;10.80;99.90;;;;;;4970961;28;20042;-74
2022/11/25 12:43:59;;;;;;;7.47;1.55;;;10.70;99.90;;;;;;4993660;28;20118;-73
2022/11/25 12:46:33;;;;;;;5.82;1.35;;;10.70;99.90;;;;;;4993571;28;20034;-73
2022/11/25 12:49:00;;;;;;;8.40;2.75;;;10.60;99.90;;;;;;4993382;28;20481;-74
2022/11/25 12:51:41;;;;;;;8.82;1.70;;;10.70;99.90;;;;;;4994787;28;20046;-73
2022/11/25 12:54:34;;;;;;;5.78;1.73;;;10.30;99.90;;;;;;4993319;28;20041;-69
2022/11/25 12:57:06;;;;;;;6.22;1.55;;;10.20;99.90;;;;;;4994408;28;20396;-74
2022/11/25 13:00:02;;;;;;;9.55;1.90;;;10.30;99.90;;;;;;4992940;28;20092;-69
2022/11/25 13:02:39;;;;;;;7.68;1.90;;;10.20;99.90;;;;;;4993307;28;20066;-71
2022/11/25 13:05:42;;;;;;;12.60;2.65;;;10.20;99.90;;;;;;4991561;28;20049;-73
2022/11/25 13:08:29;;;;;;;7.80;2.53;;;10.40;99.90;;;;;;4992890;28;20098;-74
2022/11/25 13:11:06;;;;;;;9.77;2.00;;;10.50;99.90;;;;;;4992902;28;20050;-73
2022/11/25 13:14:10;;;;;;;5.60;1.60;;;10.60;99.90;;;;;;4993329;28;20046;-72
2022/11/25 13:16:36;;;;;;;6.70;1.80;;;10.60;99.90;;;;;;4977254;28;20042;-73
2022/11/25 13:19:10;;;;;;;4.57;1.52;;;10.60;99.90;;;;;;4992735;28;20068;-75
2022/11/25 13:21:36;;;;;;;6.20;2.13;;;10.60;99.90;;;;;;4993478;28;20456;-74